Time;durP1;ratioP1;P1;durP2;ratioP2;P2;SDS_P1;SDS_P2;PMS_P1;PMS_P2;Temp;Humidity;BMP_temperature;BMP_pressure;BME280_temperature;BME280_humidity;BME280_pressure;Samples;Min_cycle;Max_cycle;Signal;HPM_P1;HPM_P2
2021/11/26 00:00:59;;;;;;;19.83;11.20;;;;;;;;;;143727;566;47020;-60
2021/11/26 00:03:27;;;;;;;17.20;11.75;;;;;;;;;;143731;592;46021;-60
2021/11/26 00:05:54;;;;;;;23.55;13.02;;;;;;;;;;143728;716;47020;-60
2021/11/26 00:08:20;;;;;;;16.75;11.90;;;;;;;;;;143726;589;47010;-60
2021/11/26 00:10:47;;;;;;;13.77;9.65;;;;;;;;;;143728;613;46021;-60
2021/11/26 00:13:15;;;;;;;10.75;7.97;;;;;;;;;;143728;575;47010;-59
2021/11/26 00:15:42;;;;;;;11.40;7.72;;;;;;;;;;143731;569;46022;-60
2021/11/26 00:18:16;;;;;;;12.25;8.52;;;;;;;;;;143724;630;47010;-60
2021/11/26 00:20:44;;;;;;;19.17;10.73;;;;;;;;;;143729;574;46020;-59
2021/11/26 00:23:12;;;;;;;16.52;10.80;;;;;;;;;;143729;566;46020;-59
2021/11/26 00:25:39;;;;;;;17.00;11.25;;;;;;;;;;143728;599;47020;-59
2021/11/26 00:28:06;;;;;;;20.17;12.55;;;;;;;;;;143728;578;46917;-60
2021/11/26 00:30:33;;;;;;;12.82;8.15;;;;;;;;;;143723;585;47021;-59
2021/11/26 00:33:01;;;;;;;8.70;7.03;;;;;;;;;;143729;577;46021;-59
2021/11/26 00:35:29;;;;;;;14.15;8.10;;;;;;;;;;143728;615;47022;-60
2021/11/26 00:37:56;;;;;;;13.80;9.07;;;;;;;;;;143726;578;47011;-59
2021/11/26 00:40:23;;;;;;;10.40;7.43;;;;;;;;;;143727;589;47020;-59
2021/11/26 00:42:50;;;;;;;9.48;6.93;;;;;;;;;;143730;630;46020;-59
2021/11/26 00:45:17;;;;;;;12.68;8.82;;;;;;;;;;143729;569;46022;-59
2021/11/26 00:47:44;;;;;;;13.45;9.23;;;;;;;;;;143725;618;47021;-59
2021/11/26 00:50:13;;;;;;;12.52;9.00;;;;;;;;;;143730;587;46020;-59
2021/11/26 00:52:40;;;;;;;15.32;9.05;;;;;;;;;;143729;588;47010;-59
2021/11/26 00:55:09;;;;;;;12.45;9.00;;;;;;;;;;143727;575;47021;-59
2021/11/26 00:57:36;;;;;;;10.25;8.05;;;;;;;;;;143727;693;47010;-59
2021/11/26 01:00:06;;;;;;;16.10;10.27;;;;;;;;;;143726;657;47020;-59
2021/11/26 01:02:33;;;;;;;15.40;10.38;;;;;;;;;;143728;564;47018;-59
2021/11/26 01:05:01;;;;;;;19.42;11.07;;;;;;;;;;143729;596;46022;-59
2021/11/26 01:07:28;;;;;;;14.93;9.88;;;;;;;;;;143726;623;47011;-60
2021/11/26 01:09:55;;;;;;;19.77;11.60;;;;;;;;;;143730;611;46021;-59
2021/11/26 01:12:23;;;;;;;20.65;10.80;;;;;;;;;;143729;569;47010;-59
2021/11/26 01:14:51;;;;;;;14.25;7.70;;;;;;;;;;143728;612;46022;-59
2021/11/26 01:17:18;;;;;;;11.50;7.90;;;;;;;;;;143728;587;46020;-59
2021/11/26 01:19:45;;;;;;;8.98;7.03;;;;;;;;;;143727;583;46020;-59
2021/11/26 01:22:13;;;;;;;9.02;6.43;;;;;;;;;;143732;638;46020;-59
2021/11/26 01:24:40;;;;;;;10.52;7.30;;;;;;;;;;143728;588;47023;-59
2021/11/26 01:27:07;;;;;;;9.43;6.43;;;;;;;;;;143727;570;47010;-59
2021/11/26 01:29:36;;;;;;;10.45;6.35;;;;;;;;;;143730;599;46020;-59
2021/11/26 01:32:05;;;;;;;9.80;6.60;;;;;;;;;;143729;669;46021;-59
2021/11/26 01:34:32;;;;;;;11.75;6.97;;;;;;;;;;143728;586;47020;-59
2021/11/26 01:36:59;;;;;;;8.80;6.10;;;;;;;;;;143727;637;47010;-59
2021/11/26 01:39:26;;;;;;;9.63;6.47;;;;;;;;;;143727;594;47020;-60
2021/11/26 01:41:54;;;;;;;7.78;5.62;;;;;;;;;;143729;565;46020;-59
2021/11/26 01:44:21;;;;;;;8.30;6.30;;;;;;;;;;143728;608;47021;-59
2021/11/26 01:46:48;;;;;;;10.18;7.37;;;;;;;;;;143728;571;46010;-59
2021/11/26 01:49:15;;;;;;;9.63;6.32;;;;;;;;;;143728;585;46020;-59
2021/11/26 01:51:42;;;;;;;13.07;6.28;;;;;;;;;;143733;588;46020;-59
2021/11/26 01:54:09;;;;;;;9.32;5.90;;;;;;;;;;143726;605;47023;-58
2021/11/26 01:56:37;;;;;;;8.93;6.05;;;;;;;;;;143727;608;47010;-59
2021/11/26 01:59:04;;;;;;;8.65;6.12;;;;;;;;;;143730;633;46020;-59
2021/11/26 02:01:32;;;;;;;9.93;6.05;;;;;;;;;;143728;570;46021;-59
2021/11/26 02:04:00;;;;;;;8.40;5.78;;;;;;;;;;143728;639;46022;-59
2021/11/26 02:06:27;;;;;;;7.28;5.40;;;;;;;;;;143728;611;47010;-59
2021/11/26 02:08:54;;;;;;;7.95;4.95;;;;;;;;;;143729;579;46021;-59
2021/11/26 02:11:20;;;;;;;7.22;5.15;;;;;;;;;;143731;569;46020;-59
2021/11/26 02:13:48;;;;;;;11.25;5.60;;;;;;;;;;143721;670;49022;-59
2021/11/26 02:16:15;;;;;;;8.32;5.35;;;;;;;;;;143728;566;47011;-59
2021/11/26 02:18:45;;;;;;;7.85;5.57;;;;;;;;;;143729;603;46020;-59
2021/11/26 02:21:12;;;;;;;8.55;5.00;;;;;;;;;;143731;591;46020;-59
2021/11/26 02:23:40;;;;;;;6.55;4.53;;;;;;;;;;143726;596;47023;-59
2021/11/26 02:26:07;;;;;;;5.72;4.62;;;;;;;;;;143729;655;46010;-59
2021/11/26 02:28:34;;;;;;;6.53;4.85;;;;;;;;;;143730;616;46020;-59
2021/11/26 02:31:01;;;;;;;7.25;5.37;;;;;;;;;;143729;569;47010;-59
2021/11/26 02:33:28;;;;;;;8.30;5.43;;;;;;;;;;143726;578;47022;-59
2021/11/26 02:35:55;;;;;;;8.25;5.97;;;;;;;;;;143726;583;47010;-59
2021/11/26 02:38:25;;;;;;;7.75;5.72;;;;;;;;;;143723;565;47012;-59
2021/11/26 02:40:52;;;;;;;5.43;4.45;;;;;;;;;;143732;685;46020;-59
2021/11/26 02:43:19;;;;;;;6.25;4.43;;;;;;;;;;143730;579;46022;-58
2021/11/26 02:45:46;;;;;;;10.48;5.40;;;;;;;;;;143727;566;47010;-59
2021/11/26 02:48:14;;;;;;;7.50;5.00;;;;;;;;;;143729;581;46020;-59
2021/11/26 02:50:44;;;;;;;8.75;5.25;;;;;;;;;;143729;599;46020;-59
2021/11/26 02:53:11;;;;;;;6.87;4.62;;;;;;;;;;143726;645;47023;-58
2021/11/26 02:55:39;;;;;;;9.85;4.70;;;;;;;;;;143725;580;47010;-58
2021/11/26 02:58:07;;;;;;;6.90;5.32;;;;;;;;;;143730;585;46020;-59
2021/11/26 03:00:36;;;;;;;8.80;5.10;;;;;;;;;;143731;569;46021;-58
2021/11/26 03:03:03;;;;;;;10.13;6.03;;;;;;;;;;143726;588;47022;-59
2021/11/26 03:05:31;;;;;;;7.40;4.55;;;;;;;;;;143727;615;47010;-59
2021/11/26 03:07:59;;;;;;;8.45;4.85;;;;;;;;;;143728;654;46021;-58
2021/11/26 03:10:27;;;;;;;8.70;4.80;;;;;;;;;;143730;572;46020;-59
2021/11/26 03:13:00;;;;;;;7.55;4.55;;;;;;;;;;143726;608;47020;-59
2021/11/26 03:15:28;;;;;;;9.55;5.00;;;;;;;;;;143725;564;47011;-58
2021/11/26 03:17:55;;;;;;;6.12;4.53;;;;;;;;;;143730;604;46020;-59
2021/11/26 03:20:24;;;;;;;6.90;4.87;;;;;;;;;;143731;589;46020;-59
2021/11/26 03:22:51;;;;;;;6.97;4.60;;;;;;;;;;143726;578;47022;-59
2021/11/26 03:25:18;;;;;;;8.80;5.30;;;;;;;;;;143727;653;47010;-58
2021/11/26 03:27:46;;;;;;;7.47;4.50;;;;;;;;;;143727;582;46020;-58
2021/11/26 03:30:17;;;;;;;9.40;5.12;;;;;;;;;;143732;691;46020;-59
2021/11/26 03:32:44;;;;;;;8.05;4.90;;;;;;;;;;143726;630;47020;-58
2021/11/26 03:35:12;;;;;;;10.10;5.32;;;;;;;;;;143727;604;46025;-59
2021/11/26 03:37:40;;;;;;;8.98;5.50;;;;;;;;;;143725;573;47021;-58
2021/11/26 03:40:09;;;;;;;9.00;6.05;;;;;;;;;;143729;578;47010;-58
2021/11/26 03:42:36;;;;;;;12.35;5.10;;;;;;;;;;143726;641;47022;-58
2021/11/26 03:45:06;;;;;;;10.57;6.30;;;;;;;;;;143723;581;47010;-59
2021/11/26 03:47:33;;;;;;;10.23;5.82;;;;;;;;;;143728;621;46020;-59
2021/11/26 03:50:00;;;;;;;13.52;5.90;;;;;;;;;;143730;626;46020;-58
2021/11/26 03:52:27;;;;;;;12.68;5.65;;;;;;;;;;143728;564;47021;-59
2021/11/26 03:54:54;;;;;;;6.75;5.20;;;;;;;;;;143727;571;47010;-59
2021/11/26 03:57:21;;;;;;;10.88;6.47;;;;;;;;;;143725;639;46020;-59
2021/11/26 03:59:48;;;;;;;9.23;6.10;;;;;;;;;;143729;617;46021;-59
2021/11/26 04:02:15;;;;;;;9.73;6.05;;;;;;;;;;143724;589;47020;-59
2021/11/26 04:04:43;;;;;;;10.93;5.62;;;;;;;;;;143724;563;47010;-58
2021/11/26 04:07:10;;;;;;;10.38;5.37;;;;;;;;;;143725;564;46020;-59
2021/11/26 04:09:36;;;;;;;8.00;4.95;;;;;;;;;;143728;570;46020;-58
2021/11/26 04:12:04;;;;;;;7.80;5.30;;;;;;;;;;143723;585;47022;-59
2021/11/26 04:14:31;;;;;;;9.07;4.97;;;;;;;;;;143724;700;47011;-59
2021/11/26 04:16:58;;;;;;;8.80;5.15;;;;;;;;;;143726;596;46020;-59
2021/11/26 04:19:25;;;;;;;9.93;6.37;;;;;;;;;;143728;641;46020;-59
2021/11/26 04:21:52;;;;;;;11.43;6.32;;;;;;;;;;143724;600;47022;-58
2021/11/26 04:24:19;;;;;;;8.48;6.25;;;;;;;;;;143723;564;47010;-59
2021/11/26 04:26:46;;;;;;;12.13;7.22;;;;;;;;;;143725;616;47020;-59
2021/11/26 04:29:13;;;;;;;8.57;6.55;;;;;;;;;;143728;699;46020;-59
2021/11/26 04:31:41;;;;;;;8.35;5.57;;;;;;;;;;143724;573;47023;-59
2021/11/26 04:34:08;;;;;;;10.52;6.28;;;;;;;;;;143727;664;46025;-58
2021/11/26 04:36:35;;;;;;;7.82;6.20;;;;;;;;;;143724;586;46020;-57
2021/11/26 04:39:05;;;;;;;9.25;6.82;;;;;;;;;;143729;583;46021;-56
2021/11/26 04:41:32;;;;;;;9.57;6.62;;;;;;;;;;143726;696;47020;-57
2021/11/26 04:43:59;;;;;;;11.70;6.78;;;;;;;;;;143721;587;47010;-55
2021/11/26 04:46:26;;;;;;;9.55;6.50;;;;;;;;;;143726;598;46021;-58
2021/11/26 04:48:53;;;;;;;10.43;6.47;;;;;;;;;;143728;584;46020;-58
2021/11/26 04:51:20;;;;;;;13.18;6.93;;;;;;;;;;143725;604;47020;-59
2021/11/26 04:53:47;;;;;;;11.85;7.53;;;;;;;;;;143725;582;46020;-59
2021/11/26 04:56:14;;;;;;;11.57;6.90;;;;;;;;;;143727;644;46020;-59
2021/11/26 04:58:41;;;;;;;16.90;7.87;;;;;;;;;;143728;573;46020;-59
2021/11/26 05:01:08;;;;;;;13.20;7.60;;;;;;;;;;143724;624;47021;-58
2021/11/26 05:03:35;;;;;;;15.25;8.32;;;;;;;;;;143724;629;47010;-57
2021/11/26 05:06:02;;;;;;;13.07;8.55;;;;;;;;;;143726;646;46020;-57
2021/11/26 05:08:29;;;;;;;16.30;9.80;;;;;;;;;;143728;610;46021;-57
2021/11/26 05:10:56;;;;;;;16.80;8.57;;;;;;;;;;143725;619;47045;-57
2021/11/26 05:13:27;;;;;;;11.38;7.80;;;;;;;;;;143724;617;47010;-56
2021/11/26 05:15:54;;;;;;;14.80;8.43;;;;;;;;;;143726;590;46021;-58
2021/11/26 05:18:23;;;;;;;22.70;10.05;;;;;;;;;;143728;570;46020;-57
2021/11/26 05:20:51;;;;;;;16.55;8.20;;;;;;;;;;143725;583;47020;-57
2021/11/26 05:23:19;;;;;;;10.32;7.80;;;;;;;;;;143723;574;47010;-57
2021/11/26 05:25:47;;;;;;;12.23;7.70;;;;;;;;;;143726;564;46020;-57
2021/11/26 05:28:14;;;;;;;12.07;8.73;;;;;;;;;;143728;587;46020;-57
2021/11/26 05:30:42;;;;;;;13.77;8.88;;;;;;;;;;143725;614;47020;-57
2021/11/26 05:33:09;;;;;;;10.77;8.60;;;;;;;;;;143725;582;47010;-57
2021/11/26 05:35:36;;;;;;;17.92;9.90;;;;;;;;;;143726;596;46020;-57
2021/11/26 05:38:04;;;;;;;12.68;8.85;;;;;;;;;;143728;593;46021;-58
2021/11/26 05:40:32;;;;;;;12.27;8.68;;;;;;;;;;143725;583;47020;-58
2021/11/26 05:42:59;;;;;;;13.55;8.23;;;;;;;;;;143724;636;47010;-58
2021/11/26 05:45:26;;;;;;;15.23;8.38;;;;;;;;;;143726;609;46021;-58
2021/11/26 05:47:53;;;;;;;13.05;8.68;;;;;;;;;;143729;586;46020;-57
2021/11/26 05:50:21;;;;;;;16.67;9.15;;;;;;;;;;143725;622;47021;-57
2021/11/26 05:52:48;;;;;;;13.18;8.23;;;;;;;;;;143723;573;47010;-58
2021/11/26 05:55:18;;;;;;;12.85;8.45;;;;;;;;;;143727;564;46020;-58
2021/11/26 05:57:46;;;;;;;14.68;8.13;;;;;;;;;;143729;591;46020;-58
2021/11/26 06:00:15;;;;;;;14.68;9.10;;;;;;;;;;143724;621;47020;-58
2021/11/26 06:02:42;;;;;;;15.98;8.68;;;;;;;;;;143724;569;47010;-58
2021/11/26 06:05:09;;;;;;;13.95;9.20;;;;;;;;;;143724;593;46020;-59
2021/11/26 06:07:36;;;;;;;12.45;9.15;;;;;;;;;;143727;566;46021;-58
2021/11/26 06:10:06;;;;;;;16.75;9.57;;;;;;;;;;143724;635;47022;-58
2021/11/26 06:12:33;;;;;;;13.93;9.70;;;;;;;;;;143724;599;47011;-58
2021/11/26 06:15:00;;;;;;;13.00;9.27;;;;;;;;;;143723;644;46907;-57
2021/11/26 06:17:27;;;;;;;18.20;9.93;;;;;;;;;;143728;590;46020;-57
2021/11/26 06:19:54;;;;;;;12.05;8.43;;;;;;;;;;143725;589;47028;-58
2021/11/26 06:22:21;;;;;;;12.50;9.20;;;;;;;;;;143724;643;47011;-58
2021/11/26 06:24:48;;;;;;;11.77;8.80;;;;;;;;;;143726;579;46020;-57
2021/11/26 06:27:15;;;;;;;10.43;7.82;;;;;;;;;;143728;623;46020;-57
2021/11/26 06:29:42;;;;;;;11.90;8.75;;;;;;;;;;143725;599;47023;-59
2021/11/26 06:32:09;;;;;;;13.40;9.85;;;;;;;;;;143723;604;47010;-57
2021/11/26 06:34:36;;;;;;;13.18;9.00;;;;;;;;;;143727;582;46020;-57
2021/11/26 06:37:03;;;;;;;17.50;9.93;;;;;;;;;;143728;581;46021;-57
2021/11/26 06:39:30;;;;;;;13.85;9.75;;;;;;;;;;143725;616;47020;-57
2021/11/26 06:41:57;;;;;;;14.68;11.00;;;;;;;;;;143723;607;47010;-57
2021/11/26 06:44:24;;;;;;;17.37;10.93;;;;;;;;;;143727;599;46021;-57
2021/11/26 06:46:51;;;;;;;14.20;9.88;;;;;;;;;;143727;566;47010;-57
2021/11/26 06:49:18;;;;;;;16.02;11.23;;;;;;;;;;143725;573;47020;-57
2021/11/26 06:51:45;;;;;;;16.90;9.75;;;;;;;;;;143723;713;47011;-56
2021/11/26 06:54:12;;;;;;;15.10;9.88;;;;;;;;;;143727;624;46020;-57
2021/11/26 06:56:39;;;;;;;15.57;10.15;;;;;;;;;;143728;571;46020;-56
2021/11/26 06:59:06;;;;;;;14.48;8.90;;;;;;;;;;143723;585;47021;-56
2021/11/26 07:01:33;;;;;;;14.75;8.23;;;;;;;;;;143724;569;47010;-56
2021/11/26 07:04:00;;;;;;;14.98;8.73;;;;;;;;;;143726;652;46020;-56
2021/11/26 07:06:27;;;;;;;11.12;7.68;;;;;;;;;;143728;582;46021;-56
2021/11/26 07:08:54;;;;;;;14.02;8.77;;;;;;;;;;143725;581;47020;-57
2021/11/26 07:11:21;;;;;;;19.58;10.18;;;;;;;;;;143723;579;47010;-58
2021/11/26 07:13:48;;;;;;;15.57;9.43;;;;;;;;;;143726;579;46021;-56
2021/11/26 07:16:15;;;;;;;12.90;9.02;;;;;;;;;;143728;570;46020;-56
2021/11/26 07:18:42;;;;;;;32.53;21.65;;;;;;;;;;143724;575;47022;-56
2021/11/26 07:21:09;;;;;;;50.88;31.80;;;;;;;;;;143724;575;47011;-56
2021/11/26 07:23:36;;;;;;;41.30;24.50;;;;;;;;;;143728;691;46020;-55
2021/11/26 07:26:03;;;;;;;33.35;21.08;;;;;;;;;;143728;664;46020;-55
2021/11/26 07:28:30;;;;;;;29.80;17.17;;;;;;;;;;143725;593;47021;-56
2021/11/26 07:30:57;;;;;;;21.50;14.38;;;;;;;;;;143723;597;47010;-56
2021/11/26 07:33:24;;;;;;;21.52;12.02;;;;;;;;;;143727;576;46020;-56
2021/11/26 07:35:51;;;;;;;18.10;11.02;;;;;;;;;;143728;574;46030;-56
2021/11/26 07:38:18;;;;;;;15.88;10.55;;;;;;;;;;143724;683;47020;-56
2021/11/26 07:40:45;;;;;;;13.35;9.45;;;;;;;;;;143724;588;47010;-55
2021/11/26 07:43:12;;;;;;;16.15;10.07;;;;;;;;;;143727;612;46023;-57
2021/11/26 07:45:39;;;;;;;19.92;9.10;;;;;;;;;;143728;569;46020;-56
2021/11/26 07:48:06;;;;;;;40.00;23.10;;;;;;;;;;143724;606;47020;-56
2021/11/26 07:50:33;;;;;;;35.30;22.50;;;;;;;;;;143725;613;47011;-57
2021/11/26 07:53:00;;;;;;;35.88;22.13;;;;;;;;;;143725;611;46020;-55
2021/11/26 07:55:27;;;;;;;22.65;14.38;;;;;;;;;;143728;588;46020;-57
2021/11/26 07:57:54;;;;;;;19.45;12.52;;;;;;;;;;143725;569;47021;-57
2021/11/26 08:00:21;;;;;;;19.98;12.63;;;;;;;;;;143721;592;47010;-57
2021/11/26 08:02:48;;;;;;;19.35;12.25;;;;;;;;;;143726;636;46020;-58
2021/11/26 08:05:16;;;;;;;15.30;9.57;;;;;;;;;;143727;596;46020;-58
2021/11/26 08:07:45;;;;;;;14.60;9.30;;;;;;;;;;143726;564;47020;-58
2021/11/26 08:10:15;;;;;;;15.65;9.15;;;;;;;;;;143727;569;46020;-57
2021/11/26 08:12:43;;;;;;;17.92;10.38;;;;;;;;;;143727;565;46021;-58
2021/11/26 08:15:12;;;;;;;11.95;8.20;;;;;;;;;;143727;598;46020;-57
2021/11/26 08:17:39;;;;;;;12.88;8.77;;;;;;;;;;143727;599;46022;-57
2021/11/26 08:20:07;;;;;;;12.37;8.13;;;;;;;;;;143727;588;46021;-57
2021/11/26 08:22:34;;;;;;;10.77;7.00;;;;;;;;;;143727;662;46020;-57
2021/11/26 08:25:01;;;;;;;12.65;7.87;;;;;;;;;;143726;681;47010;-56
2021/11/26 08:27:30;;;;;;;10.20;7.28;;;;;;;;;;143725;622;47022;-55
2021/11/26 08:29:57;;;;;;;10.90;7.10;;;;;;;;;;143725;564;47010;-56
2021/11/26 08:32:24;;;;;;;11.93;7.80;;;;;;;;;;143725;606;46906;-56
2021/11/26 08:34:51;;;;;;;10.93;7.18;;;;;;;;;;143729;592;46020;-57
2021/11/26 08:37:18;;;;;;;8.30;6.53;;;;;;;;;;143724;662;47020;-57
2021/11/26 08:39:45;;;;;;;11.38;7.28;;;;;;;;;;143726;569;46010;-56
2021/11/26 08:42:12;;;;;;;10.63;7.22;;;;;;;;;;143726;581;46020;-57
2021/11/26 08:44:39;;;;;;;9.68;7.43;;;;;;;;;;143726;570;46020;-58
2021/11/26 08:47:07;;;;;;;12.57;6.72;;;;;;;;;;143727;580;46022;-56
2021/11/26 08:49:34;;;;;;;13.73;7.25;;;;;;;;;;143723;684;47010;-56
2021/11/26 08:52:01;;;;;;;20.42;7.93;;;;;;;;;;143727;603;46020;-55
2021/11/26 08:54:29;;;;;;;10.98;7.07;;;;;;;;;;143729;579;46020;-56
2021/11/26 08:56:57;;;;;;;14.07;8.07;;;;;;;;;;143725;625;47022;-56
2021/11/26 08:59:24;;;;;;;12.10;7.87;;;;;;;;;;143724;575;47010;-55
2021/11/26 09:01:53;;;;;;;12.77;7.60;;;;;;;;;;143727;582;46020;-55
2021/11/26 09:04:21;;;;;;;13.23;8.25;;;;;;;;;;143728;602;46021;-57
2021/11/26 09:06:49;;;;;;;13.27;8.25;;;;;;;;;;143724;598;47020;-56
2021/11/26 09:09:16;;;;;;;23.27;14.10;;;;;;;;;;143726;656;46917;-57
2021/11/26 09:11:43;;;;;;;22.23;13.60;;;;;;;;;;143727;628;46020;-56
2021/11/26 09:14:11;;;;;;;25.05;12.75;;;;;;;;;;143727;582;46020;-56
2021/11/26 09:16:38;;;;;;;25.25;13.32;;;;;;;;;;143725;600;47022;-56
2021/11/26 09:19:05;;;;;;;21.27;12.20;;;;;;;;;;143725;577;47010;-57
2021/11/26 09:21:32;;;;;;;18.98;11.38;;;;;;;;;;143726;583;46020;-55
2021/11/26 09:23:59;;;;;;;18.40;9.38;;;;;;;;;;143728;596;46020;-55
2021/11/26 09:26:27;;;;;;;16.55;11.12;;;;;;;;;;143724;564;47022;-56
2021/11/26 09:28:54;;;;;;;17.37;10.27;;;;;;;;;;143724;571;47010;-58
2021/11/26 09:31:21;;;;;;;14.95;9.73;;;;;;;;;;143725;591;46020;-58
2021/11/26 09:33:50;;;;;;;16.40;9.73;;;;;;;;;;143727;583;46021;-57
2021/11/26 09:36:16;;;;;;;15.38;8.95;;;;;;;;;;143726;592;49023;-58
2021/11/26 09:38:43;;;;;;;11.63;8.52;;;;;;;;;;143722;656;47010;-57
2021/11/26 09:41:13;;;;;;;14.30;9.00;;;;;;;;;;143726;579;46020;-59
2021/11/26 09:43:40;;;;;;;13.85;8.05;;;;;;;;;;143729;580;46021;-61
2021/11/26 09:46:08;;;;;;;18.02;9.60;;;;;;;;;;143728;570;46022;-60
2021/11/26 09:48:40;;;;;;;19.85;10.10;;;;;;;;;;143726;664;47010;-58
2021/11/26 09:51:07;;;;;;;18.92;10.10;;;;;;;;;;143725;650;47020;-59
2021/11/26 09:53:35;;;;;;;23.10;10.88;;;;;;;;;;143725;564;47010;-57
2021/11/26 09:56:07;;;;;;;17.55;9.95;;;;;;;;;;143723;668;47022;-57
2021/11/26 09:58:35;;;;;;;21.23;11.70;;;;;;;;;;143724;645;47010;-58
2021/11/26 10:01:06;;;;;;;18.60;10.82;;;;;;;;;;143728;696;46020;-57
2021/11/26 10:03:44;;;;;;;19.23;11.30;;;;;;;;;;143729;571;46020;-58
2021/11/26 10:06:36;;;;;;;16.62;10.80;;;;;;;;;;143725;587;47020;-58
2021/11/26 10:09:11;;;;;;;20.15;11.70;;;;;;;;;;143724;603;47010;-57
2021/11/26 10:12:02;;;;;;;13.75;10.10;;;;;;;;;;143727;674;46021;-60
2021/11/26 10:14:38;;;;;;;16.90;9.40;;;;;;;;;;143726;601;47010;-59
2021/11/26 10:17:22;;;;;;;14.93;10.88;;;;;;;;;;143725;588;47022;-57
2021/11/26 10:20:11;;;;;;;18.35;10.57;;;;;;;;;;143723;583;49021;-58
2021/11/26 10:22:42;;;;;;;16.02;10.98;;;;;;;;;;143726;564;46020;-59
2021/11/26 10:25:16;;;;;;;15.82;10.88;;;;;;;;;;143728;566;47011;-59
2021/11/26 10:27:58;;;;;;;18.30;11.55;;;;;;;;;;143726;592;47020;-59
2021/11/26 10:30:30;;;;;;;18.87;12.32;;;;;;;;;;143724;636;48010;-58
2021/11/26 10:33:12;;;;;;;23.58;13.10;;;;;;;;;;143727;576;46020;-58
2021/11/26 10:35:42;;;;;;;22.67;12.45;;;;;;;;;;143728;646;46029;-58
2021/11/26 10:38:15;;;;;;;21.95;13.25;;;;;;;;;;143726;573;47028;-58
2021/11/26 10:40:47;;;;;;;23.23;14.75;;;;;;;;;;143726;588;47010;-58
2021/11/26 10:43:33;;;;;;;28.35;16.17;;;;;;;;;;143728;564;46021;-59
2021/11/26 10:46:26;;;;;;;31.33;18.58;;;;;;;;;;143729;617;46020;-59
2021/11/26 11:00:20;;;;;;;27.30;18.87;;;;;;;;;;143726;586;47010;-58
2021/11/26 11:02:49;;;;;;;28.48;18.08;;;;;;;;;;143724;581;47010;-59
2021/11/26 11:05:34;;;;;;;29.33;18.75;;;;;;;;;;143727;569;46021;-58
2021/11/26 11:08:03;;;;;;;27.27;16.75;;;;;;;;;;143729;696;47010;-59
2021/11/26 11:10:38;;;;;;;33.38;17.75;;;;;;;;;;143728;582;47022;-58
2021/11/26 11:13:20;;;;;;;85.93;27.65;;;;;;;;;;143723;671;48010;-59
2021/11/26 11:15:49;;;;;;;122.13;38.47;;;;;;;;;;143726;589;46020;-58
2021/11/26 11:18:17;;;;;;;215.00;64.15;;;;;;;;;;143730;564;46020;-59
2021/11/26 11:20:44;;;;;;;164.95;53.97;;;;;;;;;;143725;579;47023;-58
2021/11/26 11:23:14;;;;;;;295.02;84.93;;;;;;;;;;143724;614;47010;-59
2021/11/26 11:25:42;;;;;;;86.63;27.25;;;;;;;;;;143726;587;46020;-60
2021/11/26 11:28:11;;;;;;;56.85;20.12;;;;;;;;;;143730;575;46020;-57
2021/11/26 11:30:40;;;;;;;119.97;37.42;;;;;;;;;;143723;656;48020;-58
2021/11/26 11:33:07;;;;;;;97.05;29.58;;;;;;;;;;143727;645;46011;-60
2021/11/26 11:35:38;;;;;;;71.32;26.48;;;;;;;;;;143727;603;46020;-58
2021/11/26 11:38:09;;;;;;;72.80;23.35;;;;;;;;;;143726;593;47010;-62
2021/11/26 11:40:42;;;;;;;44.28;16.02;;;;;;;;;;143726;570;47021;-63
2021/11/26 11:43:19;;;;;;;59.30;18.83;;;;;;;;;;143725;614;47028;-60
2021/11/26 11:46:06;;;;;;;43.25;16.70;;;;;;;;;;143727;600;46020;-60
2021/11/26 11:48:36;;;;;;;61.95;24.37;;;;;;;;;;143729;570;46020;-60
2021/11/26 11:51:05;;;;;;;93.05;40.60;;;;;;;;;;143726;564;47020;-59
2021/11/26 11:53:36;;;;;;;58.28;29.65;;;;;;;;;;143726;669;47010;-57
2021/11/26 11:56:14;;;;;;;79.53;39.78;;;;;;;;;;143728;593;46020;-55
2021/11/26 11:58:53;;;;;;;18.80;10.55;;;;;;;;;;143731;593;46020;-55
2021/11/26 12:01:28;;;;;;;65.72;34.45;;;;;;;;;;143726;617;47022;-56
2021/11/26 12:03:58;;;;;;;48.78;28.30;;;;;;;;;;143725;625;47010;-55
2021/11/26 12:06:37;;;;;;;53.80;30.88;;;;;;;;;;143729;608;46020;-54
2021/11/26 12:09:04;;;;;;;79.50;45.53;;;;;;;;;;143729;592;46020;-55
2021/11/26 12:11:36;;;;;;;130.80;76.85;;;;;;;;;;143726;637;48020;-55
2021/11/26 12:14:09;;;;;;;119.30;65.68;;;;;;;;;;143726;567;47010;-55
2021/11/26 12:16:50;;;;;;;82.75;44.17;;;;;;;;;;143728;566;46020;-56
2021/11/26 12:19:27;;;;;;;28.23;17.12;;;;;;;;;;143731;603;46021;-56
2021/11/26 12:21:56;;;;;;;11.73;6.82;;;;;;;;;;143726;566;47022;-57
2021/11/26 12:24:32;;;;;;;25.55;14.20;;;;;;;;;;143728;580;47011;-57
2021/11/26 12:27:00;;;;;;;19.77;10.93;;;;;;;;;;143728;590;46021;-58
2021/11/26 12:29:50;;;;;;;53.15;28.17;;;;;;;;;;143730;570;46020;-57
2021/11/26 12:32:28;;;;;;;32.25;19.10;;;;;;;;;;143726;635;47022;-57
2021/11/26 12:35:00;;;;;;;31.30;18.45;;;;;;;;;;143725;708;47010;-57
2021/11/26 12:37:34;;;;;;;17.02;11.15;;;;;;;;;;143730;646;46020;-57
2021/11/26 12:40:09;;;;;;;13.07;8.25;;;;;;;;;;143730;575;46020;-56
2021/11/26 12:42:36;;;;;;;17.80;9.27;;;;;;;;;;143728;586;47023;-57
2021/11/26 12:45:16;;;;;;;21.23;11.85;;;;;;;;;;143726;638;47010;-56
2021/11/26 12:47:56;;;;;;;18.45;11.32;;;;;;;;;;143729;566;46023;-56
2021/11/26 12:53:28;;;;;;;15.80;8.50;;;;;;;;;;143726;621;47010;-56
2021/11/26 12:56:01;;;;;;;29.98;14.55;;;;;;;;;;143726;572;47010;-55
2021/11/26 12:58:30;;;;;;;16.48;8.05;;;;;;;;;;143727;581;46020;-56
2021/11/26 13:01:05;;;;;;;19.35;11.25;;;;;;;;;;143731;563;46020;-55
2021/11/26 13:03:48;;;;;;;15.85;8.07;;;;;;;;;;143727;579;47020;-55
2021/11/26 13:06:21;;;;;;;15.30;8.77;;;;;;;;;;143726;627;47010;-56
2021/11/26 13:08:58;;;;;;;21.77;12.05;;;;;;;;;;143729;567;46020;-56
2021/11/26 13:11:25;;;;;;;17.80;10.30;;;;;;;;;;143731;576;46021;-54
2021/11/26 13:14:01;;;;;;;17.35;10.75;;;;;;;;;;143726;587;48020;-55
2021/11/26 13:16:28;;;;;;;16.80;11.25;;;;;;;;;;143728;622;46011;-55
2021/11/26 13:18:55;;;;;;;15.80;10.23;;;;;;;;;;143728;647;46021;-54
2021/11/26 13:21:23;;;;;;;11.60;6.53;;;;;;;;;;143730;596;46020;-54
2021/11/26 13:23:50;;;;;;;21.73;9.50;;;;;;;;;;143726;601;47022;-55
2021/11/26 13:26:17;;;;;;;11.68;6.97;;;;;;;;;;143727;572;47010;-55
2021/11/26 13:28:49;;;;;;;22.85;13.25;;;;;;;;;;143728;592;46020;-55
2021/11/26 13:31:22;;;;;;;9.88;5.40;;;;;;;;;;143731;586;46020;-55
2021/11/26 13:33:51;;;;;;;7.37;4.03;;;;;;;;;;143727;570;47020;-54
2021/11/26 13:36:23;;;;;;;11.98;5.97;;;;;;;;;;143726;588;47010;-54
2021/11/26 13:39:12;;;;;;;34.88;20.00;;;;;;;;;;143725;581;46020;-55
2021/11/26 13:41:40;;;;;;;14.98;9.60;;;;;;;;;;143730;615;46021;-54
2021/11/26 13:44:10;;;;;;;84.65;55.15;;;;;;;;;;143738;587;47020;-56
2021/11/26 13:46:42;;;;;;;41.65;27.27;;;;;;;;;;143741;570;47010;-56
2021/11/26 13:49:17;;;;;;;52.92;35.83;;;;;;;;;;143742;592;46021;-56
2021/11/26 13:51:53;;;;;;;22.33;14.80;;;;;;;;;;143744;589;46020;-55
2021/11/26 13:54:27;;;;;;;14.07;10.13;;;;;;;;;;143741;586;47021;-56
2021/11/26 13:56:54;;;;;;;15.88;10.27;;;;;;;;;;143740;640;47010;-55
2021/11/26 13:59:24;;;;;;;45.30;31.10;;;;;;;;;;143743;588;46020;-56
2021/11/26 14:01:51;;;;;;;18.30;10.82;;;;;;;;;;143744;571;46020;-55
2021/11/26 14:04:23;;;;;;;17.40;10.48;;;;;;;;;;143740;620;47023;-57
2021/11/26 14:07:01;;;;;;;65.15;47.05;;;;;;;;;;143739;590;47010;-56
2021/11/26 14:09:28;;;;;;;58.40;40.03;;;;;;;;;;143741;579;46020;-56
2021/11/26 14:11:56;;;;;;;76.05;50.12;;;;;;;;;;143744;614;46020;-56
2021/11/26 14:14:26;;;;;;;66.62;46.90;;;;;;;;;;143741;566;47020;-56
2021/11/26 14:16:57;;;;;;;15.55;11.07;;;;;;;;;;143748;638;46011;-56
2021/11/26 14:19:33;;;;;;;11.40;7.00;;;;;;;;;;143741;569;46020;-56
2021/11/26 14:22:02;;;;;;;17.08;10.13;;;;;;;;;;143746;610;46020;-55
2021/11/26 14:24:43;;;;;;;38.38;27.13;;;;;;;;;;143741;599;47021;-56
2021/11/26 14:27:13;;;;;;;28.33;19.17;;;;;;;;;;143737;565;47010;-56
2021/11/26 14:29:50;;;;;;;20.92;9.70;;;;;;;;;;143741;587;46020;-55
2021/11/26 14:32:18;;;;;;;28.92;19.08;;;;;;;;;;143746;588;46020;-55
2021/11/26 14:34:45;;;;;;;47.78;37.30;;;;;;;;;;143742;570;47020;-56
2021/11/26 14:37:14;;;;;;;41.35;28.60;;;;;;;;;;143741;576;47010;-55
2021/11/26 14:39:40;;;;;;;20.85;13.85;;;;;;;;;;143741;573;46020;-55
2021/11/26 14:42:14;;;;;;;16.02;12.20;;;;;;;;;;143745;581;46020;-55
2021/11/26 14:44:44;;;;;;;11.30;8.05;;;;;;;;;;143742;590;46022;-54
2021/11/26 14:47:24;;;;;;;53.22;42.22;;;;;;;;;;143740;588;47013;-56
2021/11/26 14:49:51;;;;;;;39.25;28.45;;;;;;;;;;143739;722;46020;-55
2021/11/26 14:52:25;;;;;;;29.12;18.60;;;;;;;;;;143743;600;46020;-56